LJD weather

Cerro De Piedra Airport
La Jagua De Ibirico, César Department, Colombia

Public forecast

Using degrees Celsius for public forecast. Weather courtesy of forecast.io.

Closest aviation weather report (METAR) to Cerro De Piedra Airport

Closest report is Alfonso López Pumarejo Airport, 52.5 nm (97.2 km) N. Retrieved 2019/10/15 20:00 UTC (58 minutes ago):

SKVP 152000Z 20006KT 9999 FEW020 SCT200 33/24 A2985 RMK TCU/NE/W

Closest aviation forecast (TAF) to Cerro De Piedra Airport

Forecast is more than 12 hours old.

Closest forecast is Villa del Rosario Airport, 74.2 nm (137.4 km) NE. Retrieved 2019/09/09 18:00 UTC (1 month ago):

TAF SVVS 091700Z 0918/1018 18004KT 9999 BKN016 TX30/0919Z TN22/1008Z TEMPO 0919/0921 9000 DZ TEMPO 0922/1002 24005KT 9999 SCT016 SCT150